»·PEaware :: N5756Q KOXR-KOXR

N5756Q :: KOXR-KOXR

FLIGHT INFORMATION

Flight Status: Arrived
Operator: Privately registered:
United States
More flights under this callsign
Pilot: Juan D. (11620)
Aircraft: MOONEY M-20 201 202 205 220 ATS MSE
(M20P)
More flights by this aircraft type
Origin: KOXR Oxnard
United States
Destination: KOXR Oxnard
United States
More flights between these airports :: More routes between these airports
Route: HENER FIM GMN PMD FIM
File this flight plan on PilotEdge
Remarks:
Altitude:
(Current/Filed)
9,500ft
Speed:
(Current/Filed)
160kts
Departed: 14-Aug-20 02:27 PM
Arrived: 14-Aug-20 03:57 PM
Distance/Time
Traveled:
0nm/1:30
Distance/Time
To Go:
Arrived

Flight Plot

Page will automatically refresh every two minutes.

Flight plan parsing failed; only flown route is shown


Map Options




Map Legend


Flown Route
Filed Route
Departure Airport
Arrival Airport
Navaid (VOR, NDB)
Fix

Horizontal Profiles

Position Reports

Time Latitude Longitude Heading Altitude Ground
Speed
14-Aug-20 14:20 34.198995 -119.198108 269 46ft 0kts
14-Aug-20 14:21 34.198995 -119.198108 269 46ft 0kts
14-Aug-20 14:22 34.198995 -119.198108 269 46ft 0kts
14-Aug-20 14:23 34.198995 -119.198108 269 46ft 0kts
14-Aug-20 14:24 34.199817 -119.197307 323 47ft 0kts
14-Aug-20 14:25 34.200072 -119.197544 357 47ft 5kts
14-Aug-20 14:26 34.201220 -119.217782 269 303ft 103kts
14-Aug-20 14:27 34.213537 -119.248783 358 1046ft 132kts
14-Aug-20 14:28 34.251862 -119.250891 356 1753ft 142kts
14-Aug-20 14:29 34.291873 -119.253077 356 2450ft 145kts
14-Aug-20 14:30 34.330806 -119.249073 56 3150ft 143kts
14-Aug-20 14:31 34.340602 -119.203972 87 3855ft 138kts
14-Aug-20 14:32 34.346870 -119.158006 85 4548ft 138kts
14-Aug-20 14:33 34.359575 -119.114092 72 5237ft 138kts
14-Aug-20 14:34 34.374110 -119.071299 72 5927ft 136kts
14-Aug-20 14:35 34.373770 -119.028837 105 6624ft 125kts
14-Aug-20 14:36 34.369307 -118.987975 105 7314ft 119kts
14-Aug-20 14:37 34.365282 -118.949411 105 7999ft 112kts
14-Aug-20 14:38 34.361660 -118.913075 105 8684ft 105kts
14-Aug-20 14:39 34.358346 -118.878812 105 9281ft 104kts
14-Aug-20 14:40 34.385406 -118.863226 343 9491ft 148kts
14-Aug-20 14:41 34.428257 -118.877002 353 9494ft 171kts
14-Aug-20 14:42 34.476956 -118.880504 4 9491ft 179kts
14-Aug-20 14:43 34.527245 -118.878663 0 9490ft 183kts
14-Aug-20 14:44 34.578306 -118.878343 0 9500ft 183kts
14-Aug-20 14:45 34.629180 -118.878246 0 9545ft 182kts
14-Aug-20 14:46 34.679594 -118.878005 2 9591ft 181kts
14-Aug-20 14:47 34.729804 -118.873092 21 9634ft 179kts
14-Aug-20 14:48 34.779119 -118.865025 0 9643ft 182kts
14-Aug-20 14:49 34.829298 -118.862067 12 9642ft 181kts
14-Aug-20 14:50 34.878577 -118.858738 326 9648ft 182kts
14-Aug-20 14:51 34.921482 -118.892372 327 9618ft 184kts
14-Aug-20 14:52 34.942873 -118.868540 144 9643ft 152kts
14-Aug-20 14:53 34.907812 -118.839010 147 9660ft 153kts
14-Aug-20 14:54 34.867182 -118.840209 191 9667ft 156kts
14-Aug-20 14:55 34.824719 -118.852942 191 9654ft 157kts
14-Aug-20 14:56 34.786171 -118.848730 110 9647ft 157kts
14-Aug-20 14:57 34.791694 -118.794788 101 9689ft 159kts
14-Aug-20 14:58 34.782632 -118.742221 105 9684ft 160kts
14-Aug-20 14:59 34.772231 -118.689354 109 9664ft 160kts
14-Aug-20 15:00 34.759478 -118.637306 109 9639ft 160kts
14-Aug-20 15:01 34.746260 -118.585487 109 9609ft 161kts
14-Aug-20 15:02 34.732506 -118.533540 109 9583ft 161kts
14-Aug-20 15:03 34.718733 -118.481972 109 9572ft 160kts
14-Aug-20 15:04 34.706265 -118.430040 106 9570ft 160kts
14-Aug-20 15:05 34.694152 -118.378071 106 9570ft 159kts
14-Aug-20 15:06 34.682025 -118.326129 107 9573ft 159kts
14-Aug-20 15:07 34.669841 -118.274127 107 9576ft 159kts
14-Aug-20 15:08 34.658069 -118.221810 107 9558ft 164kts
14-Aug-20 15:09 34.647118 -118.167186 107 9562ft 168kts
14-Aug-20 15:10 34.640038 -118.110756 101 9568ft 170kts
14-Aug-20 15:12 34.633888 -118.053762 100 9571ft 170kts
14-Aug-20 15:13 34.633975 -117.996069 93 9566ft 171kts
14-Aug-20 15:14 34.611274 -117.950852 137 9565ft 163kts
14-Aug-20 15:15 34.595027 -117.905426 50 9563ft 175kts
14-Aug-20 15:16 34.626305 -117.925895 275 9563ft 166kts
14-Aug-20 15:17 34.632055 -117.981789 274 9564ft 166kts
14-Aug-20 15:18 34.637791 -118.037631 274 9568ft 167kts
14-Aug-20 15:19 34.630312 -118.090309 229 9560ft 160kts
14-Aug-20 15:20 34.605330 -118.135465 242 9402ft 170kts
14-Aug-20 15:21 34.585734 -118.190733 246 8914ft 183kts
14-Aug-20 15:22 34.565098 -118.247887 245 8554ft 181kts
14-Aug-20 15:23 34.545060 -118.301746 245 8546ft 173kts
14-Aug-20 15:24 34.526032 -118.355731 245 8538ft 174kts
14-Aug-20 15:25 34.506944 -118.409945 245 8530ft 175kts
14-Aug-20 15:26 34.487773 -118.464446 245 8453ft 180kts
14-Aug-20 15:27 34.466862 -118.523070 245 7969ft 196kts
14-Aug-20 15:28 34.444411 -118.584216 245 7482ft 197kts
14-Aug-20 15:29 34.421619 -118.643766 245 6968ft 193kts
14-Aug-20 15:29 34.405336 -118.693797 253 6547ft 192kts
14-Aug-20 15:31 34.391206 -118.763349 246 6482ft 174kts
14-Aug-20 15:32 34.374421 -118.817461 247 6471ft 170kts
14-Aug-20 15:32 34.360816 -118.862056 247 6471ft 168kts
14-Aug-20 15:33 34.360721 -118.916977 280 6471ft 173kts
14-Aug-20 15:35 34.389605 -118.971790 327 6473ft 183kts
14-Aug-20 15:35 34.425832 -118.998622 324 6471ft 183kts
14-Aug-20 15:36 34.418802 -119.034261 166 6466ft 161kts
14-Aug-20 15:37 34.384754 -118.998449 104 6465ft 177kts
14-Aug-20 15:38 34.376206 -118.939755 108 6472ft 176kts
14-Aug-20 15:39 34.362885 -118.882935 131 6461ft 171kts
14-Aug-20 15:40 34.338721 -118.910505 260 6474ft 168kts
14-Aug-20 15:41 34.347385 -118.969029 281 6041ft 191kts
14-Aug-20 15:42 34.343656 -119.033333 259 5336ft 195kts
14-Aug-20 15:43 34.339290 -119.099248 262 4631ft 197kts
14-Aug-20 15:44 34.334206 -119.165533 260 3931ft 198kts
14-Aug-20 15:45 34.327216 -119.230548 254 3260ft 186kts
14-Aug-20 15:46 34.285330 -119.240807 173 2976ft 159kts
14-Aug-20 15:47 34.266194 -119.262541 285 3227ft 127kts
14-Aug-20 15:48 34.280460 -119.296969 300 3671ft 112kts
14-Aug-20 15:49 34.301353 -119.292077 80 3516ft 109kts
14-Aug-20 15:50 34.305246 -119.255920 97 2931ft 105kts
14-Aug-20 15:51 34.304173 -119.219325 97 2295ft 109kts
14-Aug-20 15:52 34.289131 -119.192844 150 1774ft 95kts
14-Aug-20 15:53 34.258823 -119.186967 181 1774ft 131kts
14-Aug-20 15:54 34.221318 -119.185685 179 1363ft 133kts
14-Aug-20 15:55 34.200763 -119.201356 268 65ft 90kts
14-Aug-20 15:56 34.200030 -119.216824 142 33ft 0kts
14-Aug-20 15:57 34.200030 -119.216824 142 33ft 0kts
14-Aug-20 15:58 34.199843 -119.212788 92 36ft 18kts
14-Aug-20 15:59 34.199807 -119.206333 91 40ft 23kts
14-Aug-20 16:00 34.199016 -119.198881 113 46ft 17kts

Navigation Log

Ident Type
Flight plan parsing failed, navigation log unavailable